Time;durP1;ratioP1;P1;durP2;ratioP2;P2;SDS_P1;SDS_P2;PMS_P1;PMS_P2;Temp;Humidity;BMP_temperature;BMP_pressure;BME280_temperature;BME280_humidity;BME280_pressure;Samples;Min_cycle;Max_cycle;Signal;HPM_P1;HPM_P2
2022/04/26 03:37:48;;;;;;;22.77;12.37;;;11.30;90.50;;;;;;960855;147;27411;-74
2022/04/26 03:40:15;;;;;;;35.47;13.07;;;11.30;90.60;;;;;;961273;147;27262;-74
2022/04/26 03:42:42;;;;;;;31.27;12.03;;;11.30;90.70;;;;;;962291;146;27282;-74
2022/04/26 03:45:08;;;;;;;23.43;13.27;;;11.30;91.20;;;;;;960326;147;28016;-74
2022/04/26 03:47:35;;;;;;;12.27;10.73;;;11.30;90.90;;;;;;960118;147;28795;-74
2022/04/26 03:50:01;;;;;;;12.60;11.30;;;11.30;91.00;;;;;;962301;147;27228;-74
2022/04/26 03:52:28;;;;;;;10.97;9.97;;;11.30;91.00;;;;;;960984;147;27828;-74
2022/04/26 03:54:55;;;;;;;11.00;10.00;;;11.40;91.00;;;;;;963380;147;27310;-75
2022/04/26 03:57:21;;;;;;;10.80;9.80;;;11.40;91.00;;;;;;960985;146;27334;-74
2022/04/26 03:59:48;;;;;;;10.83;9.73;;;11.40;91.00;;;;;;963112;147;27305;-75
2022/04/26 04:02:14;;;;;;;11.53;10.43;;;11.40;91.00;;;;;;963111;147;27359;-76
2022/04/26 04:04:41;;;;;;;11.30;10.23;;;11.40;91.10;;;;;;960957;147;27400;-76
2022/04/26 04:07:07;;;;;;;11.80;10.63;;;11.40;91.10;;;;;;959965;147;27348;-76
2022/04/26 04:09:34;;;;;;;11.67;10.50;;;11.40;91.20;;;;;;962040;147;27306;-77
2022/04/26 04:12:01;;;;;;;11.17;10.07;;;11.40;91.30;;;;;;962417;147;27295;-76
2022/04/26 04:14:28;;;;;;;10.83;9.83;;;11.40;91.30;;;;;;961946;147;27391;-76
2022/04/26 04:16:55;;;;;;;10.93;9.93;;;11.50;91.40;;;;;;962614;147;27220;-75
2022/04/26 04:19:24;;;;;;;10.20;9.30;;;11.50;91.40;;;;;;960154;147;27440;-77
2022/04/26 04:21:50;;;;;;;10.77;9.77;;;11.50;91.50;;;;;;963545;147;27332;-75
2022/04/26 04:24:16;;;;;;;10.97;9.97;;;11.50;91.50;;;;;;962487;147;27360;-76
2022/04/26 04:26:43;;;;;;;11.67;10.57;;;11.50;91.60;;;;;;962168;147;27399;-76
2022/04/26 04:29:10;;;;;;;10.83;9.83;;;11.60;91.60;;;;;;962072;147;27393;-77
2022/04/26 04:31:36;;;;;;;10.73;9.63;;;11.60;91.70;;;;;;965252;145;27356;-77
2022/04/26 04:34:03;;;;;;;10.60;9.70;;;11.60;91.70;;;;;;976283;145;27800;-75
2022/04/26 04:36:29;;;;;;;11.00;9.97;;;11.60;91.70;;;;;;979110;145;27402;-76
2022/04/26 04:38:56;;;;;;;10.43;9.43;;;11.70;91.80;;;;;;977019;145;27382;-75
2022/04/26 04:41:22;;;;;;;10.87;9.87;;;11.70;91.80;;;;;;980061;145;27349;-76
2022/04/26 04:43:49;;;;;;;10.83;9.83;;;11.70;91.80;;;;;;977214;144;27321;-75
2022/04/26 04:46:16;;;;;;;11.30;10.10;;;11.70;91.80;;;;;;979523;145;27451;-76
2022/04/26 04:48:42;;;;;;;10.87;9.70;;;11.70;91.80;;;;;;978165;145;27381;-77
2022/04/26 04:51:09;;;;;;;11.40;10.37;;;11.80;91.80;;;;;;975979;145;27394;-76
2022/04/26 04:53:35;;;;;;;11.13;10.03;;;11.80;91.80;;;;;;978725;145;27295;-76
2022/04/26 04:56:02;;;;;;;11.97;10.77;;;11.80;91.80;;;;;;977287;145;27317;-77
2022/04/26 04:58:29;;;;;;;10.07;9.07;;;11.80;91.80;;;;;;978606;145;27406;-76
2022/04/26 05:00:55;;;;;;;10.23;9.33;;;11.80;91.80;;;;;;978554;145;27234;-73
2022/04/26 05:03:22;;;;;;;11.63;10.53;;;11.80;91.80;;;;;;978203;145;27397;-74
2022/04/26 05:05:48;;;;;;;11.83;10.27;;;11.90;91.90;;;;;;979050;145;27294;-74
2022/04/26 05:08:15;;;;;;;11.27;10.17;;;11.90;91.90;;;;;;979852;145;27377;-74
2022/04/26 05:10:42;;;;;;;11.73;10.57;;;11.90;92.00;;;;;;977161;145;27343;-74
2022/04/26 05:13:08;;;;;;;9.90;9.00;;;11.90;92.00;;;;;;981474;144;27413;-73
2022/04/26 05:15:37;;;;;;;10.03;9.07;;;11.90;91.90;;;;;;976987;145;27415;-74
2022/04/26 05:18:01;;;;;;;10.33;9.37;;;11.90;91.80;;;;;;979049;145;27254;-73
2022/04/26 05:20:28;;;;;;;9.77;8.77;;;12.00;91.90;;;;;;978474;145;27756;-74
2022/04/26 05:25:39;;;;;;;9.13;8.33;;;12.00;91.80;;;;;;977769;145;27389;-73
2022/04/26 05:28:06;;;;;;;8.60;7.80;;;12.00;91.80;;;;;;975924;145;27321;-73
2022/04/26 05:30:33;;;;;;;9.73;8.83;;;12.10;91.90;;;;;;978248;145;27370;-73
2022/04/26 05:32:59;;;;;;;9.73;8.80;;;12.00;91.90;;;;;;971212;144;27344;-75
2022/04/26 05:35:26;;;;;;;10.07;9.17;;;12.10;92.00;;;;;;967525;146;27370;-74
2022/04/26 05:37:52;;;;;;;9.57;8.67;;;12.10;91.80;;;;;;968097;146;27404;-73
2022/04/26 05:40:19;;;;;;;8.90;8.10;;;12.10;91.60;;;;;;967417;146;27923;-74
2022/04/26 05:42:46;;;;;;;9.53;8.63;;;12.10;91.70;;;;;;966653;146;27446;-73
2022/04/26 05:45:12;;;;;;;9.33;8.43;;;12.10;91.50;;;;;;967086;146;27674;-73
2022/04/26 05:47:42;;;;;;;8.37;7.57;;;12.10;91.90;;;;;;967733;146;27334;-73
2022/04/26 05:50:08;;;;;;;9.03;8.13;;;12.10;91.70;;;;;;965632;146;27401;-75
2022/04/26 05:52:35;;;;;;;11.73;10.63;;;12.10;91.80;;;;;;965341;146;27327;-74
2022/04/26 05:55:04;;;;;;;9.87;8.97;;;12.10;91.80;;;;;;968052;146;27274;-73
2022/04/26 05:57:28;;;;;;;9.23;8.40;;;12.10;91.90;;;;;;967862;146;27255;-73
2022/04/26 05:59:55;;;;;;;10.60;9.63;;;12.10;92.00;;;;;;968659;146;27396;-73
2022/04/26 06:02:21;;;;;;;10.33;9.43;;;12.20;92.10;;;;;;967187;146;27283;-74
2022/04/26 06:04:48;;;;;;;11.13;10.03;;;12.20;92.20;;;;;;967517;146;27477;-73
2022/04/26 06:07:15;;;;;;;10.17;9.20;;;12.20;92.30;;;;;;967412;146;27303;-72
2022/04/26 06:09:41;;;;;;;10.20;9.17;;;12.20;92.30;;;;;;967340;146;27305;-72
2022/04/26 06:12:08;;;;;;;9.03;8.23;;;12.20;92.30;;;;;;970715;146;27414;-72
2022/04/26 06:14:34;;;;;;;9.37;8.47;;;12.20;92.40;;;;;;967373;146;27277;-73
2022/04/26 06:17:01;;;;;;;9.07;8.17;;;12.30;92.40;;;;;;969086;146;27411;-72
2022/04/26 06:19:28;;;;;;;7.97;7.20;;;12.30;92.40;;;;;;968248;146;27441;-73
2022/04/26 06:21:54;;;;;;;8.47;7.67;;;12.30;92.40;;;;;;969766;146;27263;-72
2022/04/26 06:24:21;;;;;;;8.20;7.50;;;12.40;92.40;;;;;;968494;146;27259;-73
2022/04/26 06:26:47;;;;;;;7.47;6.77;;;12.40;92.50;;;;;;968059;146;27391;-73
2022/04/26 06:29:14;;;;;;;9.80;8.90;;;12.40;92.50;;;;;;966831;146;27420;-74
2022/04/26 06:31:41;;;;;;;8.90;8.00;;;12.40;92.50;;;;;;968813;146;27330;-72
2022/04/26 06:34:07;;;;;;;9.27;7.77;;;12.50;92.50;;;;;;967937;146;27460;-72
2022/04/26 06:36:34;;;;;;;9.07;8.27;;;12.50;92.50;;;;;;968404;146;27386;-72
2022/04/26 06:39:00;;;;;;;8.43;7.67;;;12.50;92.90;;;;;;969358;146;27273;-73
2022/04/26 06:41:27;;;;;;;8.27;7.57;;;12.60;92.50;;;;;;966583;146;27660;-74
2022/04/26 06:43:53;;;;;;;8.37;7.57;;;12.60;92.50;;;;;;969648;146;27410;-72
2022/04/26 06:46:20;;;;;;;8.13;7.43;;;12.60;92.40;;;;;;971656;146;27658;-72
2022/04/26 06:48:49;;;;;;;7.70;7.00;;;12.60;92.40;;;;;;970020;146;27460;-72
2022/04/26 06:51:14;;;;;;;7.93;7.23;;;12.60;92.40;;;;;;969743;146;27383;-72
2022/04/26 06:53:40;;;;;;;8.17;7.30;;;12.70;92.40;;;;;;969737;146;27242;-72
2022/04/26 06:56:06;;;;;;;8.23;7.47;;;12.70;92.40;;;;;;970507;146;27398;-72
2022/04/26 06:58:33;;;;;;;7.23;6.63;;;12.70;92.50;;;;;;969594;146;27325;-73
2022/04/26 07:01:00;;;;;;;7.93;7.20;;;12.70;92.50;;;;;;969250;146;27413;-73
2022/04/26 07:03:29;;;;;;;7.33;6.73;;;12.80;93.00;;;;;;970655;146;27301;-72
2022/04/26 07:05:56;;;;;;;7.27;6.57;;;12.80;92.70;;;;;;967124;146;27862;-72
2022/04/26 07:08:22;;;;;;;7.50;6.80;;;12.90;92.70;;;;;;967153;146;27394;-73
2022/04/26 07:10:49;;;;;;;6.80;6.20;;;12.90;92.70;;;;;;969949;146;27388;-73
2022/04/26 07:13:18;;;;;;;6.40;5.90;;;13.00;92.70;;;;;;970584;146;27315;-73
2022/04/26 07:15:42;;;;;;;7.23;6.63;;;13.00;92.60;;;;;;969574;146;27328;-73
2022/04/26 07:18:09;;;;;;;6.40;5.80;;;13.10;92.60;;;;;;967571;146;27290;-73
2022/04/26 07:20:35;;;;;;;6.67;6.07;;;13.10;92.60;;;;;;970151;146;27293;-73
2022/04/26 07:23:02;;;;;;;7.30;6.70;;;13.20;92.60;;;;;;969307;146;27334;-72
2022/04/26 07:25:28;;;;;;;6.80;6.20;;;13.20;92.50;;;;;;966822;146;27286;-73
2022/04/26 07:27:55;;;;;;;6.73;6.13;;;13.30;92.50;;;;;;967456;146;27292;-72
2022/04/26 07:30:21;;;;;;;6.33;5.83;;;13.20;92.20;;;;;;967813;146;27676;-72
2022/04/26 07:35:33;;;;;;;6.37;5.63;;;13.30;91.90;;;;;;967850;146;27399;-72
2022/04/26 07:38:06;;;;;;;5.90;5.40;;;13.30;91.80;;;;;;968107;146;27437;-74
2022/04/26 07:40:32;;;;;;;6.13;5.53;;;13.30;91.70;;;;;;965039;146;27298;-73
2022/04/26 07:42:58;;;;;;;5.70;5.20;;;13.30;91.60;;;;;;968354;146;27413;-72
2022/04/26 07:45:25;;;;;;;5.70;5.20;;;13.30;91.70;;;;;;967597;146;28280;-74
2022/04/26 07:47:51;;;;;;;6.77;6.13;;;13.20;91.80;;;;;;966091;146;27426;-72
2022/04/26 07:50:18;;;;;;;6.60;6.07;;;13.20;91.90;;;;;;968962;146;27318;-73
2022/04/26 07:52:45;;;;;;;7.07;6.47;;;13.20;92.20;;;;;;969822;146;27396;-74
2022/04/26 07:55:11;;;;;;;7.13;6.43;;;13.30;92.40;;;;;;968946;146;27347;-73
2022/04/26 07:57:39;;;;;;;6.60;5.93;;;13.30;92.60;;;;;;969833;146;27426;-73
2022/04/26 08:00:04;;;;;;;6.67;6.07;;;13.40;92.80;;;;;;967568;146;27306;-73
2022/04/26 08:02:31;;;;;;;7.17;6.57;;;13.40;93.00;;;;;;968486;146;27302;-73
2022/04/26 08:05:01;;;;;;;6.67;6.07;;;13.50;93.00;;;;;;969117;146;27418;-74
2022/04/26 08:07:24;;;;;;;6.17;5.67;;;13.60;93.00;;;;;;965482;146;27324;-73
2022/04/26 08:09:51;;;;;;;6.07;5.57;;;13.70;92.80;;;;;;967273;146;27407;-74
2022/04/26 08:12:17;;;;;;;5.17;4.77;;;13.80;92.70;;;;;;966861;146;27323;-73
2022/04/26 08:14:44;;;;;;;5.80;5.30;;;13.80;92.50;;;;;;969050;146;27318;-73
2022/04/26 08:17:11;;;;;;;6.03;5.43;;;13.90;92.30;;;;;;970248;145;27434;-73
2022/04/26 08:19:37;;;;;;;6.23;5.67;;;13.90;92.00;;;;;;967135;146;27420;-73
2022/04/26 08:22:04;;;;;;;6.10;5.60;;;14.00;91.80;;;;;;966337;146;27324;-73
2022/04/26 08:27:25;;;;;;;6.10;5.60;;;14.00;91.80;;;;;;968943;146;27330;-73
2022/04/26 08:29:50;;;;;;;5.70;5.20;;;14.10;91.60;;;;;;967726;146;27339;-74
2022/04/26 08:32:17;;;;;;;6.50;5.93;;;14.00;91.30;;;;;;967149;146;27391;-72
2022/04/26 08:34:43;;;;;;;6.93;6.33;;;14.00;91.20;;;;;;966930;146;27429;-74
2022/04/26 08:37:10;;;;;;;5.30;4.90;;;14.00;91.40;;;;;;964864;146;27432;-74
2022/04/26 08:39:36;;;;;;;7.10;6.50;;;14.10;91.70;;;;;;967411;146;27343;-73
2022/04/26 08:42:03;;;;;;;6.97;6.30;;;14.10;91.80;;;;;;968878;146;27428;-73
2022/04/26 08:44:29;;;;;;;5.73;5.33;;;14.10;91.80;;;;;;966105;146;27368;-73
2022/04/26 08:52:26;;;;;;;6.10;5.60;;;14.20;91.90;;;;;;967444;146;27320;-72
2022/04/26 08:54:53;;;;;;;6.90;6.30;;;14.30;91.90;;;;;;969722;145;27819;-73
2022/04/26 08:57:19;;;;;;;6.13;5.63;;;14.30;91.70;;;;;;966247;146;27390;-72
2022/04/26 08:59:49;;;;;;;5.47;5.07;;;14.40;91.80;;;;;;934137;150;27387;-73
2022/04/26 09:02:19;;;;;;;5.37;4.97;;;14.40;91.70;;;;;;932852;150;27329;-73
2022/04/26 09:04:45;;;;;;;6.27;5.70;;;14.40;91.60;;;;;;945346;146;27409;-74
2022/04/26 09:07:12;;;;;;;6.87;6.27;;;14.50;91.50;;;;;;937389;149;27442;-73
2022/04/26 09:09:41;;;;;;;6.37;5.83;;;14.50;91.60;;;;;;943847;149;27773;-73
2022/04/26 09:12:10;;;;;;;6.40;5.90;;;14.60;91.60;;;;;;954839;146;27296;-73
2022/04/26 09:14:41;;;;;;;6.80;6.20;;;14.60;91.70;;;;;;935387;149;27394;-73
2022/04/26 09:17:09;;;;;;;5.90;5.40;;;14.60;91.50;;;;;;953353;146;27458;-73
2022/04/26 09:19:47;;;;;;;9.70;6.20;;;14.70;91.60;;;;;;957214;148;27435;-73
2022/04/26 09:22:17;;;;;;;6.80;6.20;;;14.70;91.50;;;;;;944996;146;27297;-73
2022/04/26 09:25:05;;;;;;;8.60;7.80;;;14.80;91.50;;;;;;934620;149;27480;-73
2022/04/26 09:27:31;;;;;;;7.80;7.00;;;14.80;91.40;;;;;;935153;149;27376;-73
2022/04/26 09:29:58;;;;;;;7.70;7.00;;;14.90;91.30;;;;;;946647;146;27342;-72
2022/04/26 09:32:24;;;;;;;8.70;7.80;;;14.90;91.10;;;;;;946179;146;27412;-73
2022/04/26 09:34:51;;;;;;;8.20;7.40;;;14.90;90.90;;;;;;942999;148;27371;-73
2022/04/26 09:37:17;;;;;;;7.50;6.80;;;15.00;90.90;;;;;;976735;143;27288;-73
2022/04/26 09:40:00;;;;;;;6.77;6.17;;;15.00;90.80;;;;;;963635;146;27276;-73
2022/04/26 09:42:29;;;;;;;6.90;6.20;;;15.00;90.60;;;;;;959269;146;27483;-74
2022/04/26 09:44:55;;;;;;;6.37;5.83;;;15.10;90.60;;;;;;975179;143;27337;-73
2022/04/26 09:47:37;;;;;;;7.43;6.73;;;15.10;90.60;;;;;;976771;143;27307;-73
2022/04/26 09:50:06;;;;;;;7.10;6.40;;;15.10;90.60;;;;;;959750;146;27319;-73
2022/04/26 09:52:33;;;;;;;7.03;6.43;;;15.10;90.40;;;;;;958831;147;27325;-73
2022/04/26 09:55:00;;;;;;;6.00;5.47;;;15.10;90.40;;;;;;978820;143;27471;-73
2022/04/26 09:57:26;;;;;;;7.10;6.47;;;15.10;90.30;;;;;;968008;146;27331;-73
2022/04/26 09:59:52;;;;;;;5.90;5.33;;;15.20;90.30;;;;;;958071;146;27325;-73
2022/04/26 10:02:19;;;;;;;4.70;4.30;;;15.20;90.20;;;;;;965440;145;27300;-73
2022/04/26 10:04:46;;;;;;;5.07;4.57;;;15.20;89.60;;;;;;963697;146;27323;-73
2022/04/26 10:07:12;;;;;;;5.03;4.57;;;15.30;88.60;;;;;;959337;146;27421;-74
2022/04/26 10:09:39;;;;;;;5.53;5.03;;;15.30;87.60;;;;;;965039;146;27338;-73
2022/04/26 10:12:05;;;;;;;5.30;4.80;;;15.30;87.50;;;;;;964019;146;27662;-74
2022/04/26 10:14:32;;;;;;;4.60;4.30;;;15.30;87.60;;;;;;964114;146;27396;-73
2022/04/26 10:16:59;;;;;;;4.87;4.47;;;15.30;87.40;;;;;;961182;146;27292;-73
2022/04/26 10:19:40;;;;;;;5.50;5.00;;;15.30;87.20;;;;;;970829;145;27819;-73
2022/04/26 10:22:11;;;;;;;4.40;4.00;;;15.30;87.50;;;;;;981943;143;27317;-73
2022/04/26 10:24:34;;;;;;;4.77;4.30;;;15.20;86.90;;;;;;979401;143;27325;-73
2022/04/26 10:27:19;;;;;;;4.63;4.23;;;15.20;86.40;;;;;;964142;145;27306;-73
2022/04/26 10:29:45;;;;;;;3.87;3.57;;;15.10;86.20;;;;;;963946;146;27279;-73
2022/04/26 10:32:11;;;;;;;3.40;3.10;;;15.00;85.40;;;;;;956796;145;27358;-73
2022/04/26 10:34:40;;;;;;;3.37;2.63;;;14.90;84.30;;;;;;966436;145;27417;-74
2022/04/26 10:37:11;;;;;;;2.57;2.37;;;14.80;83.30;;;;;;962415;145;27373;-74
2022/04/26 10:39:37;;;;;;;2.60;2.40;;;14.70;82.70;;;;;;957843;147;27345;-74
2022/04/26 10:42:04;;;;;;;2.07;1.90;;;14.60;82.80;;;;;;958795;147;27427;-73
2022/04/26 10:44:31;;;;;;;2.43;2.23;;;14.40;83.00;;;;;;965100;146;27307;-73
2022/04/26 10:47:03;;;;;;;2.33;2.00;;;14.30;83.20;;;;;;961063;145;27431;-74
2022/04/26 10:49:35;;;;;;;3.20;2.77;;;14.20;83.60;;;;;;979923;143;27762;-73
2022/04/26 10:52:34;;;;;;;2.50;2.30;;;14.20;84.40;;;;;;977846;143;27437;-73
2022/04/26 10:54:47;;;;;;;5.67;2.70;;;14.10;85.20;;;;;;956339;146;27303;-72
2022/04/26 10:57:16;;;;;;;2.60;2.40;;;14.10;85.90;;;;;;963336;146;27307;-73
2022/04/26 10:59:48;;;;;;;2.57;2.37;;;14.00;85.90;;;;;;961042;146;27409;-74
2022/04/26 11:02:18;;;;;;;2.40;2.13;;;14.00;85.70;;;;;;955808;145;27360;-73
2022/04/26 11:04:45;;;;;;;2.00;1.90;;;14.00;85.80;;;;;;963440;146;27497;-72
2022/04/26 11:07:11;;;;;;;1.97;1.57;;;14.00;86.20;;;;;;970617;146;27371;-73
2022/04/26 11:09:40;;;;;;;1.60;1.50;;;13.90;86.10;;;;;;967419;146;27271;-73
2022/04/26 11:12:07;;;;;;;1.60;1.50;;;13.90;86.20;;;;;;967764;146;27783;-73
2022/04/26 11:14:33;;;;;;;1.70;1.50;;;13.90;86.00;;;;;;971005;146;27298;-73
2022/04/26 11:17:00;;;;;;;1.70;1.60;;;13.80;86.60;;;;;;964324;145;27405;-72
2022/04/26 11:19:32;;;;;;;2.03;1.83;;;13.80;87.10;;;;;;964358;146;27333;-72
2022/04/26 11:22:08;;;;;;;1.70;1.60;;;13.80;87.30;;;;;;960325;146;27397;-73
2022/04/26 11:30:03;;;;;;;1.70;1.60;;;13.90;88.30;;;;;;978049;143;27383;-72
2022/04/26 11:32:30;;;;;;;1.40;1.23;;;13.90;88.90;;;;;;979556;143;27422;-72
2022/04/26 11:34:56;;;;;;;1.20;1.10;;;13.90;89.60;;;;;;977240;143;27922;-74
2022/04/26 11:37:23;;;;;;;1.17;1.07;;;14.00;89.70;;;;;;966230;143;27358;-73
2022/04/26 11:39:50;;;;;;;1.43;1.33;;;14.10;88.70;;;;;;964140;144;27379;-74
2022/04/26 11:42:16;;;;;;;1.67;1.57;;;14.20;88.00;;;;;;962512;144;27650;-73
2022/04/26 11:45:01;;;;;;;1.40;1.30;;;14.20;87.90;;;;;;961538;144;27291;-74
2022/04/26 11:47:49;;;;;;;1.40;1.30;;;14.30;88.20;;;;;;949507;147;27289;-74
2022/04/26 11:50:18;;;;;;;1.20;1.20;;;14.30;88.60;;;;;;961350;144;27949;-74
2022/04/26 11:52:45;;;;;;;1.77;1.60;;;14.40;88.10;;;;;;962323;144;27343;-73
2022/04/26 11:55:20;;;;;;;1.77;1.67;;;14.40;87.70;;;;;;950769;147;27367;-74
2022/04/26 11:57:47;;;;;;;1.50;1.40;;;14.40;87.60;;;;;;962581;144;27281;-73
2022/04/26 12:00:13;;;;;;;2.33;1.60;;;14.50;86.80;;;;;;951210;147;27336;-75
2022/04/26 12:02:41;;;;;;;1.60;1.50;;;14.50;87.70;;;;;;953350;147;27347;-74
2022/04/26 12:05:08;;;;;;;2.00;1.70;;;14.50;87.80;;;;;;954282;147;27473;-74
2022/04/26 12:07:33;;;;;;;2.20;1.63;;;14.60;88.40;;;;;;951430;147;27398;-72
2022/04/26 12:10:00;;;;;;;1.83;1.73;;;14.60;87.60;;;;;;964826;144;27271;-72
2022/04/26 12:12:27;;;;;;;2.00;1.87;;;14.60;87.10;;;;;;956653;147;27983;-73
2022/04/26 12:14:53;;;;;;;1.90;1.70;;;14.70;86.60;;;;;;955026;147;27406;-75
2022/04/26 12:17:22;;;;;;;1.50;1.40;;;14.70;86.10;;;;;;954975;147;27382;-73
2022/04/26 12:19:50;;;;;;;2.43;1.40;;;14.60;85.90;;;;;;953633;147;27488;-74
2022/04/26 12:22:13;;;;;;;1.77;1.37;;;14.60;86.10;;;;;;951674;147;27434;-74
2022/04/26 12:24:45;;;;;;;2.07;1.50;;;14.60;86.20;;;;;;940390;147;27327;-74
2022/04/26 12:27:12;;;;;;;2.33;1.80;;;14.60;86.30;;;;;;942539;147;27317;-73
2022/04/26 12:29:41;;;;;;;1.70;1.60;;;14.60;86.00;;;;;;952785;147;27429;-73
2022/04/26 12:32:10;;;;;;;1.53;1.43;;;14.60;86.10;;;;;;944937;147;27343;-73
2022/04/26 12:34:37;;;;;;;1.63;1.43;;;14.60;85.70;;;;;;953455;147;27237;-72
2022/04/26 12:37:06;;;;;;;1.70;1.60;;;14.60;85.80;;;;;;952248;147;27443;-73
2022/04/26 12:39:39;;;;;;;1.60;1.50;;;14.60;86.30;;;;;;953693;147;27362;-73
2022/04/26 12:42:07;;;;;;;1.70;1.60;;;14.60;86.70;;;;;;954670;147;27336;-73
2022/04/26 12:44:32;;;;;;;1.83;1.60;;;14.70;87.30;;;;;;964031;144;27366;-73
2022/04/26 12:52:53;;;;;;;1.50;1.40;;;14.90;87.10;;;;;;943295;147;27465;-73
2022/04/26 12:55:31;;;;;;;1.60;1.50;;;15.00;86.70;;;;;;953532;147;27425;-74
2022/04/26 12:57:58;;;;;;;1.70;1.60;;;15.10;86.70;;;;;;962210;144;27306;-73
2022/04/26 13:00:24;;;;;;;2.17;1.87;;;15.20;87.10;;;;;;963231;144;27312;-72
2022/04/26 13:02:51;;;;;;;1.53;1.43;;;15.20;87.50;;;;;;952804;147;27884;-73
2022/04/26 13:05:18;;;;;;;2.10;1.40;;;15.40;87.20;;;;;;962435;144;27272;-73
2022/04/26 13:07:46;;;;;;;1.55;1.45;;;15.50;86.70;;;;;;957105;147;27773;-73
2022/04/26 13:10:11;;;;;;;1.67;1.57;;;15.60;85.90;;;;;;964374;144;27468;-73
2022/04/26 13:12:37;;;;;;;2.07;1.87;;;15.70;85.30;;;;;;959395;145;27412;-72
2022/04/26 13:15:04;;;;;;;1.30;1.30;;;15.80;84.80;;;;;;955018;147;27633;-72
2022/04/26 13:17:31;;;;;;;1.70;1.60;;;15.80;84.30;;;;;;955085;147;27367;-73
2022/04/26 13:19:57;;;;;;;2.08;1.87;;;15.90;84.00;;;;;;955700;147;27417;-74
2022/04/26 13:22:24;;;;;;;1.70;1.50;;;15.90;83.50;;;;;;957543;147;27266;-73
2022/04/26 13:24:51;;;;;;;1.90;1.80;;;15.90;83.20;;;;;;954874;147;27353;-73
2022/04/26 13:27:18;;;;;;;2.22;2.02;;;16.00;82.80;;;;;;953998;147;27366;-73
2022/04/26 13:29:43;;;;;;;1.97;1.87;;;16.00;82.30;;;;;;956274;147;27297;-73
2022/04/26 13:32:10;;;;;;;1.50;1.40;;;16.00;81.80;;;;;;956269;147;27309;-73
2022/04/26 13:34:37;;;;;;;1.30;1.30;;;16.00;81.60;;;;;;949144;146;27814;-72
2022/04/26 13:37:07;;;;;;;1.73;1.63;;;16.00;81.40;;;;;;953983;146;27381;-72
2022/04/26 13:39:30;;;;;;;1.60;1.50;;;16.00;81.10;;;;;;969659;146;27310;-72
2022/04/26 13:41:56;;;;;;;1.60;1.50;;;15.90;80.70;;;;;;977179;143;27412;-73
2022/04/26 13:44:23;;;;;;;1.90;1.80;;;15.90;80.60;;;;;;971135;145;27306;-72
2022/04/26 13:46:50;;;;;;;1.77;1.63;;;15.90;80.40;;;;;;963779;146;27306;-74
2022/04/26 13:49:16;;;;;;;1.92;1.80;;;15.90;80.70;;;;;;960695;146;27408;-72
2022/04/26 13:51:43;;;;;;;1.87;1.67;;;15.90;81.50;;;;;;958923;146;27404;-72
2022/04/26 13:54:09;;;;;;;1.47;1.40;;;15.90;82.00;;;;;;973353;146;27408;-72
2022/04/26 13:56:36;;;;;;;1.23;1.20;;;16.00;82.00;;;;;;961390;146;27261;-73
2022/04/26 13:59:03;;;;;;;1.50;1.40;;;16.00;81.50;;;;;;978063;143;27366;-73
2022/04/26 14:01:29;;;;;;;1.62;1.52;;;16.10;81.20;;;;;;969851;145;27375;-74
2022/04/26 14:03:56;;;;;;;1.72;1.62;;;16.10;80.60;;;;;;967260;146;27367;-73
2022/04/26 14:06:22;;;;;;;1.75;1.65;;;16.20;80.10;;;;;;969622;145;27398;-73
2022/04/26 14:08:49;;;;;;;1.80;1.70;;;16.20;79.80;;;;;;967077;146;27311;-73
2022/04/26 14:11:15;;;;;;;1.80;1.70;;;16.20;79.60;;;;;;962751;146;27401;-73
2022/04/26 14:21:56;;;;;;;1.67;1.57;;;16.30;80.00;;;;;;960836;146;27471;-73
2022/04/26 14:24:22;;;;;;;2.00;1.90;;;16.40;79.80;;;;;;976466;143;27290;-73
2022/04/26 14:26:49;;;;;;;1.42;1.32;;;16.40;79.60;;;;;;971620;146;27305;-73
2022/04/26 14:29:16;;;;;;;1.20;1.20;;;16.50;79.10;;;;;;971262;146;27418;-73
2022/04/26 14:31:42;;;;;;;1.50;1.40;;;16.50;78.20;;;;;;962503;146;27362;-73
2022/04/26 14:34:09;;;;;;;1.83;1.60;;;16.50;77.30;;;;;;980902;143;27258;-74
2022/04/26 14:36:35;;;;;;;1.97;1.77;;;16.50;77.00;;;;;;961579;146;27323;-73
2022/04/26 14:39:02;;;;;;;1.67;1.57;;;16.40;76.70;;;;;;954991;146;27425;-73
2022/04/26 14:41:28;;;;;;;1.60;1.50;;;16.30;76.50;;;;;;951690;147;27321;-74
2022/04/26 14:43:55;;;;;;;2.30;2.20;;;16.20;76.40;;;;;;952594;147;27736;-73
2022/04/26 14:46:22;;;;;;;2.23;2.07;;;16.10;76.40;;;;;;947889;147;27340;-73
2022/04/26 14:48:48;;;;;;;1.60;1.50;;;16.00;76.40;;;;;;961571;146;27241;-74
2022/04/26 14:51:15;;;;;;;1.80;1.70;;;15.90;76.40;;;;;;962639;146;27368;-73
2022/04/26 14:53:41;;;;;;;2.02;1.82;;;15.80;76.50;;;;;;962298;146;27821;-74
2022/04/26 14:56:09;;;;;;;2.20;2.07;;;15.60;76.80;;;;;;961701;146;27488;-73
2022/04/26 14:58:35;;;;;;;1.90;1.80;;;15.50;77.10;;;;;;962743;146;28367;-73
2022/04/26 15:01:01;;;;;;;2.20;2.10;;;15.40;77.60;;;;;;961287;145;27336;-73
2022/04/26 15:03:28;;;;;;;1.80;1.70;;;15.30;77.90;;;;;;961989;146;28182;-73
2022/04/26 15:05:54;;;;;;;1.73;1.63;;;15.20;78.20;;;;;;961151;146;27273;-73
2022/04/26 15:11:06;;;;;;;1.90;1.80;;;14.90;78.70;;;;;;961402;146;27433;-73
2022/04/26 15:19:02;;;;;;;2.20;2.10;;;14.70;80.40;;;;;;961385;146;27813;-74
2022/04/26 15:21:28;;;;;;;2.97;2.67;;;14.60;80.80;;;;;;962731;146;27425;-73
2022/04/26 15:23:55;;;;;;;2.73;2.33;;;14.60;81.40;;;;;;961932;146;27345;-73
2022/04/26 15:26:21;;;;;;;2.20;2.10;;;14.60;81.90;;;;;;961414;146;28337;-72
2022/04/26 15:28:48;;;;;;;2.57;2.37;;;14.50;81.80;;;;;;960345;146;27323;-72
2022/04/26 15:31:20;;;;;;;3.00;2.80;;;14.50;82.30;;;;;;961659;146;27329;-73
2022/04/26 15:33:44;;;;;;;2.73;2.53;;;14.40;82.70;;;;;;959805;146;27323;-73
2022/04/26 15:36:11;;;;;;;2.53;2.33;;;14.40;83.30;;;;;;959733;146;27344;-74
2022/04/26 15:38:39;;;;;;;2.23;2.13;;;14.40;83.30;;;;;;961791;146;27543;-72
2022/04/26 15:41:07;;;;;;;3.30;3.10;;;14.30;83.30;;;;;;959815;146;27344;-73
2022/04/26 15:43:33;;;;;;;2.80;2.60;;;14.20;83.20;;;;;;962716;146;27367;-72
2022/04/26 15:46:00;;;;;;;3.07;2.87;;;14.20;83.60;;;;;;961275;146;27342;-72
2022/04/26 15:48:26;;;;;;;3.20;3.00;;;14.10;84.30;;;;;;961644;146;27439;-74
2022/04/26 15:50:53;;;;;;;3.60;3.10;;;14.10;83.90;;;;;;960245;146;27348;-72
2022/04/26 15:53:20;;;;;;;5.03;4.03;;;14.00;84.30;;;;;;960850;146;27269;-73
2022/04/26 15:55:46;;;;;;;4.53;4.13;;;14.00;84.40;;;;;;960053;146;27264;-73
2022/04/26 15:58:13;;;;;;;4.57;4.17;;;13.90;84.40;;;;;;960794;146;27376;-73
2022/04/26 16:00:40;;;;;;;3.60;3.40;;;13.90;84.70;;;;;;961500;146;27341;-73
2022/04/26 16:03:06;;;;;;;3.10;2.90;;;13.80;85.00;;;;;;960261;146;27401;-72
2022/04/26 16:05:35;;;;;;;3.10;2.90;;;13.80;85.30;;;;;;961349;146;27539;-73
2022/04/26 16:07:59;;;;;;;2.80;2.60;;;13.70;85.50;;;;;;962465;146;27312;-73
2022/04/26 16:21:28;;;;;;;3.63;3.30;;;13.70;85.80;;;;;;961904;146;27775;-73
2022/04/26 16:23:57;;;;;;;3.87;3.20;;;13.70;85.70;;;;;;958424;146;27397;-73
2022/04/26 16:26:24;;;;;;;3.90;3.60;;;13.60;84.80;;;;;;961569;146;27325;-73
2022/04/26 16:28:51;;;;;;;3.43;3.13;;;13.60;85.80;;;;;;961631;146;27358;-74
2022/04/26 16:31:18;;;;;;;3.33;3.03;;;13.60;85.90;;;;;;958925;146;27447;-73
2022/04/26 16:33:43;;;;;;;3.87;3.47;;;13.60;85.90;;;;;;960920;146;27342;-73
2022/04/26 16:36:11;;;;;;;3.40;3.10;;;13.60;86.20;;;;;;960535;146;27504;-73
2022/04/26 16:38:37;;;;;;;3.90;2.80;;;13.60;86.40;;;;;;961989;146;27303;-74
2022/04/26 16:41:07;;;;;;;3.50;3.20;;;13.50;86.40;;;;;;961691;146;27352;-73
2022/04/26 16:43:36;;;;;;;3.70;3.40;;;13.50;86.30;;;;;;962492;146;27359;-73
2022/04/26 16:46:02;;;;;;;2.93;2.73;;;13.50;86.10;;;;;;960678;146;27312;-74
2022/04/26 16:48:28;;;;;;;3.00;2.80;;;13.50;86.00;;;;;;961629;146;27284;-73
2022/04/26 16:50:55;;;;;;;3.00;2.80;;;13.40;86.40;;;;;;959901;146;27420;-73
2022/04/26 16:53:21;;;;;;;2.63;2.33;;;13.40;85.60;;;;;;961405;146;27318;-74
2022/04/26 16:55:48;;;;;;;3.10;2.90;;;13.40;85.60;;;;;;960894;146;27689;-73
2022/04/26 16:58:16;;;;;;;2.73;2.50;;;13.30;85.70;;;;;;960334;146;27328;-73
2022/04/26 17:00:41;;;;;;;2.87;2.67;;;13.30;86.00;;;;;;959174;146;27387;-73
2022/04/26 17:03:08;;;;;;;2.60;2.40;;;13.20;85.90;;;;;;959588;146;27440;-73
2022/04/26 17:05:34;;;;;;;2.63;2.40;;;13.20;85.70;;;;;;961852;146;27414;-74
2022/04/26 17:08:02;;;;;;;2.80;2.60;;;13.20;85.80;;;;;;960971;146;27362;-73
2022/04/26 17:10:27;;;;;;;2.90;2.70;;;13.10;86.00;;;;;;963126;146;27308;-73
2022/04/26 17:12:54;;;;;;;2.60;2.40;;;13.10;86.30;;;;;;961070;146;27314;-73
2022/04/26 17:15:21;;;;;;;3.30;3.00;;;13.00;86.40;;;;;;959594;146;27308;-73